sensor_id;sensor_type;location;lat;lon;timestamp;pressure;altitude;pressure_sealevel;temperature;humidity
13765;BME280;6953;48.810;9.204;2023-05-20T00:02:00;98896.78;;;14.03;92.47
13765;BME280;6953;48.810;9.204;2023-05-20T00:04:25;98764.34;;;13.44;92.94
13765;BME280;6953;48.810;9.204;2023-05-20T00:06:51;98850.81;;;13.93;93.04
13765;BME280;6953;48.810;9.204;2023-05-20T00:09:16;98869.66;;;13.87;93.71
13765;BME280;6953;48.810;9.204;2023-05-20T00:11:42;98576.69;;;12.17;93.56
13765;BME280;6953;48.810;9.204;2023-05-20T00:14:07;98830.41;;;13.69;94.16
13765;BME280;6953;48.810;9.204;2023-05-20T00:16:33;98775.09;;;13.41;94.17
13765;BME280;6953;48.810;9.204;2023-05-20T00:18:58;98638.53;;;12.65;94.26
13765;BME280;6953;48.810;9.204;2023-05-20T00:21:24;98830.75;;;13.91;94.05
13765;BME280;6953;48.810;9.204;2023-05-20T00:23:49;98696.16;;;13.12;94.37
13765;BME280;6953;48.810;9.204;2023-05-20T00:26:15;98850.69;;;14.09;94.52
13765;BME280;6953;48.810;9.204;2023-05-20T00:28:40;98875.78;;;14.16;94.26
13765;BME280;6953;48.810;9.204;2023-05-20T00:31:06;98643.97;;;13.04;94.18
13765;BME280;6953;48.810;9.204;2023-05-20T00:33:31;98828.91;;;14.19;94.25
13765;BME280;6953;48.810;9.204;2023-05-20T00:35:56;98642.53;;;13.13;93.68
13765;BME280;6953;48.810;9.204;2023-05-20T00:38:22;98850.41;;;14.40;93.86
13765;BME280;6953;48.810;9.204;2023-05-20T00:40:47;98847.47;;;14.44;93.97
13765;BME280;6953;48.810;9.204;2023-05-20T00:43:12;98869.34;;;14.46;94.07
13765;BME280;6953;48.810;9.204;2023-05-20T00:45:38;98560.41;;;12.80;93.03
13765;BME280;6953;48.810;9.204;2023-05-20T00:48:04;98738.13;;;13.95;93.35
13765;BME280;6953;48.810;9.204;2023-05-20T00:50:30;98844.25;;;14.65;92.92
13765;BME280;6953;48.810;9.204;2023-05-20T00:52:56;98843.75;;;14.73;92.88
13765;BME280;6953;48.810;9.204;2023-05-20T00:55:23;98832.16;;;14.75;92.63
13765;BME280;6953;48.810;9.204;2023-05-20T00:57:48;98582.91;;;13.38;92.54
13765;BME280;6953;48.810;9.204;2023-05-20T01:00:14;98626.75;;;13.78;92.04
13765;BME280;6953;48.810;9.204;2023-05-20T01:02:39;98834.31;;;15.08;91.72
13765;BME280;6953;48.810;9.204;2023-05-20T01:05:05;98689.91;;;14.32;90.29
13765;BME280;6953;48.810;9.204;2023-05-20T01:07:31;98834.75;;;15.27;89.96
13765;BME280;6953;48.810;9.204;2023-05-20T01:09:57;98830.72;;;15.34;89.62
13765;BME280;6953;48.810;9.204;2023-05-20T01:12:28;98830.91;;;15.43;88.92
13765;BME280;6953;48.810;9.204;2023-05-20T01:15:00;98833.13;;;15.49;88.52
13765;BME280;6953;48.810;9.204;2023-05-20T01:17:29;98512.13;;;13.71;87.66
13765;BME280;6953;48.810;9.204;2023-05-20T01:19:58;98765.78;;;15.17;87.41
13765;BME280;6953;48.810;9.204;2023-05-20T01:22:28;98764.34;;;15.26;87.06
13765;BME280;6953;48.810;9.204;2023-05-20T01:24:54;98812.59;;;15.53;87.46
13765;BME280;6953;48.810;9.204;2023-05-20T01:27:20;98839.03;;;15.65;86.88
13765;BME280;6953;48.810;9.204;2023-05-20T01:29:50;98822.22;;;15.66;86.67
13765;BME280;6953;48.810;9.204;2023-05-20T01:32:22;98818.75;;;15.65;87.26
13765;BME280;6953;48.810;9.204;2023-05-20T01:34:51;98721.63;;;15.07;86.78
13765;BME280;6953;48.810;9.204;2023-05-20T01:37:18;98811.34;;;15.58;86.59
13765;BME280;6953;48.810;9.204;2023-05-20T01:39:44;98824.13;;;15.52;86.69
13765;BME280;6953;48.810;9.204;2023-05-20T01:42:10;98765.56;;;15.33;86.53
13765;BME280;6953;48.810;9.204;2023-05-20T01:44:38;98809.97;;;15.53;86.83
13765;BME280;6953;48.810;9.204;2023-05-20T01:47:03;98844.47;;;15.51;86.81
13765;BME280;6953;48.810;9.204;2023-05-20T01:49:29;98544.00;;;13.93;86.32
13765;BME280;6953;48.810;9.204;2023-05-20T01:51:55;98805.09;;;15.22;86.57
13765;BME280;6953;48.810;9.204;2023-05-20T01:54:20;98819.31;;;15.33;86.93
13765;BME280;6953;48.810;9.204;2023-05-20T01:56:46;98808.59;;;15.10;87.62
13765;BME280;6953;48.810;9.204;2023-05-20T01:59:11;98699.88;;;14.54;87.58
13765;BME280;6953;48.810;9.204;2023-05-20T02:01:37;98823.59;;;15.09;88.92
13765;BME280;6953;48.810;9.204;2023-05-20T02:04:02;98836.06;;;14.95;89.32
13765;BME280;6953;48.810;9.204;2023-05-20T02:06:28;98819.59;;;14.91;89.82
13765;BME280;6953;48.810;9.204;2023-05-20T02:08:53;98836.59;;;14.87;89.99
13765;BME280;6953;48.810;9.204;2023-05-20T02:11:19;98804.66;;;14.78;90.07
13765;BME280;6953;48.810;9.204;2023-05-20T02:13:44;98812.25;;;14.70;90.85
13765;BME280;6953;48.810;9.204;2023-05-20T02:16:09;98797.25;;;14.58;91.10
13765;BME280;6953;48.810;9.204;2023-05-20T02:18:35;98778.38;;;14.25;91.82
13765;BME280;6953;48.810;9.204;2023-05-20T02:21:01;98558.94;;;13.02;92.16
13765;BME280;6953;48.810;9.204;2023-05-20T02:23:28;98834.25;;;14.32;93.19
13765;BME280;6953;48.810;9.204;2023-05-20T02:25:53;98809.28;;;14.23;93.77
13765;BME280;6953;48.810;9.204;2023-05-20T02:28:19;98807.59;;;14.22;93.95
13765;BME280;6953;48.810;9.204;2023-05-20T02:30:44;98512.91;;;12.41;94.38
13765;BME280;6953;48.810;9.204;2023-05-20T02:33:10;98559.09;;;12.73;94.27
13765;BME280;6953;48.810;9.204;2023-05-20T02:35:36;98806.94;;;14.19;94.86
13765;BME280;6953;48.810;9.204;2023-05-20T02:38:01;98806.19;;;14.17;94.67
13765;BME280;6953;48.810;9.204;2023-05-20T02:40:27;98810.81;;;14.13;95.34
13765;BME280;6953;48.810;9.204;2023-05-20T02:42:52;98728.91;;;13.62;95.34
13765;BME280;6953;48.810;9.204;2023-05-20T02:45:17;98816.38;;;14.09;95.18
13765;BME280;6953;48.810;9.204;2023-05-20T02:47:43;98550.78;;;12.52;95.41
13765;BME280;6953;48.810;9.204;2023-05-20T02:50:08;98807.16;;;14.02;95.72
13765;BME280;6953;48.810;9.204;2023-05-20T02:52:34;98546.38;;;12.39;96.70
13765;BME280;6953;48.810;9.204;2023-05-20T02:55:00;98837.53;;;13.95;96.91
13765;BME280;6953;48.810;9.204;2023-05-20T02:57:25;98802.69;;;13.90;97.53
13765;BME280;6953;48.810;9.204;2023-05-20T02:59:53;98820.88;;;13.80;97.22
13765;BME280;6953;48.810;9.204;2023-05-20T03:02:19;98808.72;;;13.92;97.38
13765;BME280;6953;48.810;9.204;2023-05-20T03:04:44;98819.34;;;13.90;97.14
13765;BME280;6953;48.810;9.204;2023-05-20T03:07:11;98831.50;;;13.93;97.61
13765;BME280;6953;48.810;9.204;2023-05-20T03:09:36;98815.47;;;13.96;97.82
13765;BME280;6953;48.810;9.204;2023-05-20T03:12:02;98609.75;;;12.76;97.75
13765;BME280;6953;48.810;9.204;2023-05-20T03:14:27;98837.72;;;13.92;97.59
13765;BME280;6953;48.810;9.204;2023-05-20T03:16:53;98559.78;;;12.48;97.52
13765;BME280;6953;48.810;9.204;2023-05-20T03:19:21;98750.31;;;13.57;97.85
13765;BME280;6953;48.810;9.204;2023-05-20T03:21:47;98816.69;;;13.90;97.89
13765;BME280;6953;48.810;9.204;2023-05-20T03:24:12;98748.66;;;13.43;98.35
13765;BME280;6953;48.810;9.204;2023-05-20T03:26:37;98695.53;;;13.08;99.29
13765;BME280;6953;48.810;9.204;2023-05-20T03:29:08;98731.38;;;13.25;99.60
13765;BME280;6953;48.810;9.204;2023-05-20T03:31:33;98810.75;;;13.60;100.00
13765;BME280;6953;48.810;9.204;2023-05-20T03:33:59;98810.00;;;13.58;100.00
13765;BME280;6953;48.810;9.204;2023-05-20T03:36:25;98841.19;;;13.52;100.00
13765;BME280;6953;48.810;9.204;2023-05-20T03:38:50;98803.78;;;13.46;100.00
13765;BME280;6953;48.810;9.204;2023-05-20T03:41:15;98748.28;;;13.07;100.00
13765;BME280;6953;48.810;9.204;2023-05-20T03:43:41;98796.75;;;13.32;100.00
13765;BME280;6953;48.810;9.204;2023-05-20T03:46:06;98544.00;;;11.79;100.00
13765;BME280;6953;48.810;9.204;2023-05-20T03:48:32;98813.88;;;13.39;100.00
13765;BME280;6953;48.810;9.204;2023-05-20T03:50:57;98819.53;;;13.33;100.00
13765;BME280;6953;48.810;9.204;2023-05-20T03:53:22;98818.28;;;13.52;100.00
13765;BME280;6953;48.810;9.204;2023-05-20T03:55:48;98849.25;;;13.63;100.00
13765;BME280;6953;48.810;9.204;2023-05-20T03:58:14;98820.50;;;13.72;100.00
13765;BME280;6953;48.810;9.204;2023-05-20T04:00:39;98807.25;;;13.74;100.00
13765;BME280;6953;48.810;9.204;2023-05-20T04:03:05;98595.56;;;12.65;100.00
13765;BME280;6953;48.810;9.204;2023-05-20T04:05:31;98785.47;;;13.84;100.00
13765;BME280;6953;48.810;9.204;2023-05-20T04:07:56;98813.38;;;14.15;100.00
13765;BME280;6953;48.810;9.204;2023-05-20T04:10:22;98818.28;;;14.33;99.49
13765;BME280;6953;48.810;9.204;2023-05-20T04:12:48;98811.16;;;14.48;98.72
13765;BME280;6953;48.810;9.204;2023-05-20T04:15:13;98576.44;;;13.30;97.55
13765;BME280;6953;48.810;9.204;2023-05-20T04:17:40;98798.63;;;14.76;96.58
13765;BME280;6953;48.810;9.204;2023-05-20T04:20:06;98755.63;;;14.61;95.72
13765;BME280;6953;48.810;9.204;2023-05-20T04:22:32;98810.50;;;15.08;95.05
13765;BME280;6953;48.810;9.204;2023-05-20T04:24:58;98807.44;;;15.14;94.38
13765;BME280;6953;48.810;9.204;2023-05-20T04:27:24;98561.81;;;13.89;93.65
13765;BME280;6953;48.810;9.204;2023-05-20T04:29:50;98801.34;;;15.38;93.66
13765;BME280;6953;48.810;9.204;2023-05-20T04:32:17;98746.63;;;15.14;92.85
13765;BME280;6953;48.810;9.204;2023-05-20T04:34:44;98795.78;;;15.54;92.73
13765;BME280;6953;48.810;9.204;2023-05-20T04:37:10;98563.41;;;14.29;91.71
13765;BME280;6953;48.810;9.204;2023-05-20T04:39:35;98792.69;;;15.72;91.88
13765;BME280;6953;48.810;9.204;2023-05-20T04:42:01;98764.50;;;15.48;91.19
13765;BME280;6953;48.810;9.204;2023-05-20T04:44:27;98795.53;;;15.69;91.40
13765;BME280;6953;48.810;9.204;2023-05-20T04:46:54;98802.56;;;15.58;91.65
13765;BME280;6953;48.810;9.204;2023-05-20T04:49:20;98731.19;;;15.33;91.25
13765;BME280;6953;48.810;9.204;2023-05-20T04:51:45;98695.03;;;15.21;91.14
13765;BME280;6953;48.810;9.204;2023-05-20T04:54:11;98832.00;;;15.89;90.16
13765;BME280;6953;48.810;9.204;2023-05-20T04:56:37;98788.28;;;15.96;89.89
13765;BME280;6953;48.810;9.204;2023-05-20T04:59:04;98793.34;;;15.99;89.21
13765;BME280;6953;48.810;9.204;2023-05-20T05:01:29;98765.41;;;15.95;88.90
13765;BME280;6953;48.810;9.204;2023-05-20T05:03:54;98787.69;;;16.27;88.24
13765;BME280;6953;48.810;9.204;2023-05-20T05:06:20;98791.88;;;16.65;86.79
13765;BME280;6953;48.810;9.204;2023-05-20T05:08:45;98789.28;;;16.98;85.27
13765;BME280;6953;48.810;9.204;2023-05-20T05:11:11;98791.06;;;17.32;83.57
13765;BME280;6953;48.810;9.204;2023-05-20T05:13:36;98800.56;;;17.67;82.48
13765;BME280;6953;48.810;9.204;2023-05-20T05:16:01;98791.50;;;17.91;81.41
13765;BME280;6953;48.810;9.204;2023-05-20T05:18:27;98803.31;;;17.98;79.87
13765;BME280;6953;48.810;9.204;2023-05-20T05:21:03;98813.41;;;18.26;79.07
13765;BME280;6953;48.810;9.204;2023-05-20T05:23:29;98763.59;;;18.39;78.13
13765;BME280;6953;48.810;9.204;2023-05-20T05:25:54;98776.53;;;18.64;77.05
13765;BME280;6953;48.810;9.204;2023-05-20T05:28:20;98766.28;;;18.80;76.34
13765;BME280;6953;48.810;9.204;2023-05-20T05:30:45;98762.88;;;18.89;75.75
13765;BME280;6953;48.810;9.204;2023-05-20T05:33:10;98593.75;;;18.06;75.03
13765;BME280;6953;48.810;9.204;2023-05-20T05:35:37;98564.56;;;18.06;73.74
13765;BME280;6953;48.810;9.204;2023-05-20T05:38:03;98685.44;;;18.83;73.08
13765;BME280;6953;48.810;9.204;2023-05-20T05:40:28;98538.44;;;18.11;72.57
13765;BME280;6953;48.810;9.204;2023-05-20T05:42:53;98768.56;;;19.55;72.08
13765;BME280;6953;48.810;9.204;2023-05-20T05:45:19;98786.25;;;19.66;71.40
13765;BME280;6953;48.810;9.204;2023-05-20T05:47:44;98749.09;;;20.03;70.85
13765;BME280;6953;48.810;9.204;2023-05-20T05:50:10;98761.34;;;20.63;68.66
13765;BME280;6953;48.810;9.204;2023-05-20T05:52:35;98759.81;;;20.89;66.81
13765;BME280;6953;48.810;9.204;2023-05-20T05:55:01;98538.50;;;19.67;65.71
13765;BME280;6953;48.810;9.204;2023-05-20T05:57:26;98688.78;;;20.59;65.53
13765;BME280;6953;48.810;9.204;2023-05-20T05:59:52;98754.09;;;21.20;65.17
13765;BME280;6953;48.810;9.204;2023-05-20T06:02:17;98757.06;;;21.53;64.30
13765;BME280;6953;48.810;9.204;2023-05-20T06:04:43;98752.13;;;21.68;63.80
13765;BME280;6953;48.810;9.204;2023-05-20T06:07:08;98751.25;;;21.94;63.58
13765;BME280;6953;48.810;9.204;2023-05-20T06:09:34;98714.28;;;22.34;60.62
13765;BME280;6953;48.810;9.204;2023-05-20T06:11:59;98708.84;;;22.26;60.54
13765;BME280;6953;48.810;9.204;2023-05-20T06:14:24;98753.72;;;22.49;60.23
13765;BME280;6953;48.810;9.204;2023-05-20T06:16:50;98536.16;;;21.90;58.10
13765;BME280;6953;48.810;9.204;2023-05-20T06:19:15;98558.72;;;23.30;53.34
13765;BME280;6953;48.810;9.204;2023-05-20T06:21:41;98732.22;;;25.31;50.07
13765;BME280;6953;48.810;9.204;2023-05-20T06:24:06;98743.50;;;26.11;47.02
13765;BME280;6953;48.810;9.204;2023-05-20T06:26:31;98747.88;;;26.87;45.17
13765;BME280;6953;48.810;9.204;2023-05-20T06:28:57;98751.41;;;27.10;44.42
13765;BME280;6953;48.810;9.204;2023-05-20T06:31:22;98655.50;;;26.86;42.69
13765;BME280;6953;48.810;9.204;2023-05-20T06:33:47;98578.16;;;27.09;40.04
13765;BME280;6953;48.810;9.204;2023-05-20T06:36:13;98570.22;;;26.93;41.41
13765;BME280;6953;48.810;9.204;2023-05-20T06:38:38;98573.47;;;26.60;41.26
13765;BME280;6953;48.810;9.204;2023-05-20T06:41:04;98740.09;;;27.14;43.20
13765;BME280;6953;48.810;9.204;2023-05-20T06:43:29;98719.00;;;27.32;43.44
13765;BME280;6953;48.810;9.204;2023-05-20T06:45:54;98741.06;;;27.64;41.78
13765;BME280;6953;48.810;9.204;2023-05-20T06:48:20;98735.63;;;27.07;43.36
13765;BME280;6953;48.810;9.204;2023-05-20T06:50:45;98525.03;;;26.38;41.87
13765;BME280;6953;48.810;9.204;2023-05-20T06:53:10;98729.06;;;27.96;41.08
13765;BME280;6953;48.810;9.204;2023-05-20T06:55:39;98572.69;;;28.51;36.91
13765;BME280;6953;48.810;9.204;2023-05-20T06:58:04;98740.75;;;29.70;35.98
13765;BME280;6953;48.810;9.204;2023-05-20T07:00:30;98520.75;;;27.44;38.35
13765;BME280;6953;48.810;9.204;2023-05-20T07:02:55;98753.69;;;29.20;37.52
13765;BME280;6953;48.810;9.204;2023-05-20T07:05:22;98728.22;;;29.63;36.19
13765;BME280;6953;48.810;9.204;2023-05-20T07:07:48;98731.41;;;28.90;38.12
13765;BME280;6953;48.810;9.204;2023-05-20T07:10:14;98721.16;;;27.94;39.59
13765;BME280;6953;48.810;9.204;2023-05-20T07:12:39;98709.88;;;27.04;41.66
13765;BME280;6953;48.810;9.204;2023-05-20T07:15:05;98701.94;;;26.66;42.79
13765;BME280;6953;48.810;9.204;2023-05-20T07:17:31;98715.75;;;26.40;43.64
13765;BME280;6953;48.810;9.204;2023-05-20T07:19:56;98698.81;;;26.32;44.16
13765;BME280;6953;48.810;9.204;2023-05-20T07:22:21;98706.47;;;27.39;41.89
13765;BME280;6953;48.810;9.204;2023-05-20T07:24:47;98702.78;;;27.69;40.71
13765;BME280;6953;48.810;9.204;2023-05-20T07:27:12;98702.78;;;27.69;40.34
13765;BME280;6953;48.810;9.204;2023-05-20T07:29:37;98572.25;;;26.40;40.89
13765;BME280;6953;48.810;9.204;2023-05-20T07:32:03;98501.06;;;25.69;42.35
13765;BME280;6953;48.810;9.204;2023-05-20T07:34:29;98686.66;;;27.47;41.99
13765;BME280;6953;48.810;9.204;2023-05-20T07:36:56;98691.59;;;28.22;39.90
13765;BME280;6953;48.810;9.204;2023-05-20T07:39:22;98684.50;;;28.56;39.03
13765;BME280;6953;48.810;9.204;2023-05-20T07:41:48;98513.28;;;27.60;38.08
13765;BME280;6953;48.810;9.204;2023-05-20T07:44:14;98571.75;;;29.72;34.30
13765;BME280;6953;48.810;9.204;2023-05-20T07:46:39;98702.25;;;31.07;32.40
13765;BME280;6953;48.810;9.204;2023-05-20T07:49:06;98663.16;;;31.47;31.16
13765;BME280;6953;48.810;9.204;2023-05-20T07:51:32;98701.00;;;30.17;33.15
13765;BME280;6953;48.810;9.204;2023-05-20T07:53:57;98686.50;;;28.89;36.45
13765;BME280;6953;48.810;9.204;2023-05-20T07:56:23;98595.38;;;27.72;38.28
13765;BME280;6953;48.810;9.204;2023-05-20T07:58:56;98709.63;;;27.57;39.29
13765;BME280;6953;48.810;9.204;2023-05-20T08:01:25;98690.50;;;28.52;37.54
13765;BME280;6953;48.810;9.204;2023-05-20T08:03:51;98685.31;;;28.57;37.83
13765;BME280;6953;48.810;9.204;2023-05-20T08:06:17;98683.41;;;29.47;35.56
13765;BME280;6953;48.810;9.204;2023-05-20T08:08:45;98651.19;;;29.99;33.82
13765;BME280;6953;48.810;9.204;2023-05-20T08:11:10;98683.19;;;31.39;31.68
13765;BME280;6953;48.810;9.204;2023-05-20T08:13:35;98684.47;;;32.50;29.53
13765;BME280;6953;48.810;9.204;2023-05-20T08:16:01;98601.50;;;30.90;31.17
13765;BME280;6953;48.810;9.204;2023-05-20T08:18:28;98497.41;;;29.56;32.99
13765;BME280;6953;48.810;9.204;2023-05-20T08:20:53;98466.81;;;28.28;34.63
13765;BME280;6953;48.810;9.204;2023-05-20T08:23:19;98480.34;;;27.30;37.70
13765;BME280;6953;48.810;9.204;2023-05-20T08:25:44;98681.84;;;27.56;40.54
13765;BME280;6953;48.810;9.204;2023-05-20T08:28:13;98518.94;;;25.84;42.29
13765;BME280;6953;48.810;9.204;2023-05-20T08:30:38;98685.84;;;26.36;43.61
13765;BME280;6953;48.810;9.204;2023-05-20T08:33:04;98513.22;;;25.04;44.61
13765;BME280;6953;48.810;9.204;2023-05-20T08:35:29;98450.53;;;24.51;45.13
13765;BME280;6953;48.810;9.204;2023-05-20T08:37:55;98685.94;;;25.51;45.98
13765;BME280;6953;48.810;9.204;2023-05-20T08:40:21;98496.34;;;24.18;47.43
13765;BME280;6953;48.810;9.204;2023-05-20T08:42:50;98679.91;;;24.87;48.70
13765;BME280;6953;48.810;9.204;2023-05-20T08:45:18;98656.91;;;24.21;50.26
13765;BME280;6953;48.810;9.204;2023-05-20T08:47:45;98662.94;;;24.23;51.18
13765;BME280;6953;48.810;9.204;2023-05-20T08:50:12;98670.66;;;24.33;51.46
13765;BME280;6953;48.810;9.204;2023-05-20T08:52:42;98655.78;;;24.55;50.73
13765;BME280;6953;48.810;9.204;2023-05-20T08:55:13;98691.16;;;25.52;48.73
13765;BME280;6953;48.810;9.204;2023-05-20T08:57:40;98551.47;;;26.85;41.56
13765;BME280;6953;48.810;9.204;2023-05-20T09:00:07;98471.00;;;27.11;39.68
13765;BME280;6953;48.810;9.204;2023-05-20T09:02:37;98684.16;;;28.24;39.55
13765;BME280;6953;48.810;9.204;2023-05-20T09:05:03;98687.56;;;28.74;37.67
13765;BME280;6953;48.810;9.204;2023-05-20T09:07:29;98627.38;;;28.80;36.98
13765;BME280;6953;48.810;9.204;2023-05-20T09:09:55;98679.31;;;29.64;35.42
13765;BME280;6953;48.810;9.204;2023-05-20T09:12:21;98587.88;;;29.06;35.61
13765;BME280;6953;48.810;9.204;2023-05-20T09:14:46;98681.41;;;29.35;36.19
13765;BME280;6953;48.810;9.204;2023-05-20T09:17:12;98655.34;;;28.93;36.73
13765;BME280;6953;48.810;9.204;2023-05-20T09:19:38;98674.28;;;28.72;36.58
13765;BME280;6953;48.810;9.204;2023-05-20T09:22:03;98662.78;;;29.12;36.00
13765;BME280;6953;48.810;9.204;2023-05-20T09:24:30;98670.31;;;29.23;36.22
13765;BME280;6953;48.810;9.204;2023-05-20T09:26:56;98685.09;;;30.68;32.92
13765;BME280;6953;48.810;9.204;2023-05-20T09:29:23;98678.34;;;32.86;28.81
13765;BME280;6953;48.810;9.204;2023-05-20T09:31:49;98690.19;;;32.98;28.26
13765;BME280;6953;48.810;9.204;2023-05-20T09:34:16;98684.97;;;32.34;29.12
13765;BME280;6953;48.810;9.204;2023-05-20T09:36:43;98680.41;;;32.66;28.87
13765;BME280;6953;48.810;9.204;2023-05-20T09:39:24;98698.97;;;33.24;27.68
13765;BME280;6953;48.810;9.204;2023-05-20T09:41:59;98662.94;;;34.88;25.75
13765;BME280;6953;48.810;9.204;2023-05-20T09:44:27;98709.78;;;36.23;24.83
13765;BME280;6953;48.810;9.204;2023-05-20T09:46:53;98693.69;;;37.97;22.42
13765;BME280;6953;48.810;9.204;2023-05-20T09:49:21;98684.63;;;39.60;20.07
13765;BME280;6953;48.810;9.204;2023-05-20T09:51:48;98709.41;;;40.87;18.77
13765;BME280;6953;48.810;9.204;2023-05-20T09:54:17;98704.06;;;39.89;19.28
13765;BME280;6953;48.810;9.204;2023-05-20T09:56:43;98684.28;;;39.15;20.58
13765;BME280;6953;48.810;9.204;2023-05-20T09:59:10;98664.69;;;39.79;19.16
13765;BME280;6953;48.810;9.204;2023-05-20T10:01:35;98699.50;;;41.11;18.22
13765;BME280;6953;48.810;9.204;2023-05-20T10:04:03;98685.84;;;42.14;17.29
13765;BME280;6953;48.810;9.204;2023-05-20T10:06:48;98688.75;;;40.94;18.00
13765;BME280;6953;48.810;9.204;2023-05-20T10:15:22;98669.59;;;42.61;17.18
13765;BME280;6953;48.810;9.204;2023-05-20T10:18:11;98549.47;;;42.25;16.41
13765;BME280;6953;48.810;9.204;2023-05-20T10:20:50;98674.50;;;42.20;16.84
13765;BME280;6953;48.810;9.204;2023-05-20T10:23:28;98658.69;;;41.73;16.97
13765;BME280;6953;48.810;9.204;2023-05-20T10:25:55;98671.50;;;39.67;18.64
13765;BME280;6953;48.810;9.204;2023-05-20T10:28:30;98636.94;;;38.71;20.46
13765;BME280;6953;48.810;9.204;2023-05-20T10:30:57;98642.28;;;39.14;20.00
13765;BME280;6953;48.810;9.204;2023-05-20T10:33:25;98637.63;;;37.88;21.25
13765;BME280;6953;48.810;9.204;2023-05-20T10:35:51;98634.88;;;39.56;19.59
13765;BME280;6953;48.810;9.204;2023-05-20T10:38:17;98637.22;;;41.40;17.88
13765;BME280;6953;48.810;9.204;2023-05-20T10:40:43;98488.81;;;40.34;18.20
13765;BME280;6953;48.810;9.204;2023-05-20T10:43:10;98642.41;;;41.51;18.06
13765;BME280;6953;48.810;9.204;2023-05-20T10:45:46;98521.84;;;40.24;18.41
13765;BME280;6953;48.810;9.204;2023-05-20T10:48:22;98621.53;;;39.84;18.80
13765;BME280;6953;48.810;9.204;2023-05-20T10:50:48;98579.75;;;38.95;19.88
13765;BME280;6953;48.810;9.204;2023-05-20T10:53:14;98464.50;;;37.74;19.95
13765;BME280;6953;48.810;9.204;2023-05-20T10:55:47;98585.19;;;37.04;21.35
13765;BME280;6953;48.810;9.204;2023-05-20T10:58:13;98599.88;;;36.65;21.61
13765;BME280;6953;48.810;9.204;2023-05-20T11:00:39;98566.91;;;36.43;22.13
13765;BME280;6953;48.810;9.204;2023-05-20T11:03:05;98596.41;;;35.86;22.40
13765;BME280;6953;48.810;9.204;2023-05-20T11:05:31;98401.78;;;33.92;23.85
13765;BME280;6953;48.810;9.204;2023-05-20T11:08:06;98529.19;;;34.19;24.42
13765;BME280;6953;48.810;9.204;2023-05-20T11:10:35;98535.25;;;33.63;24.67
13765;BME280;6953;48.810;9.204;2023-05-20T11:13:02;98436.44;;;32.79;26.14
13765;BME280;6953;48.810;9.204;2023-05-20T11:15:30;98552.41;;;36.27;22.71
13765;BME280;6953;48.810;9.204;2023-05-20T11:17:59;98579.75;;;38.95;20.06
13765;BME280;6953;48.810;9.204;2023-05-20T11:20:25;98575.41;;;39.40;19.52
13765;BME280;6953;48.810;9.204;2023-05-20T11:22:51;98404.53;;;36.28;21.36
13765;BME280;6953;48.810;9.204;2023-05-20T11:25:17;98509.28;;;35.33;23.45
13765;BME280;6953;48.810;9.204;2023-05-20T11:27:44;98567.19;;;35.58;23.73
13765;BME280;6953;48.810;9.204;2023-05-20T11:30:12;98557.69;;;35.38;23.72
13765;BME280;6953;48.810;9.204;2023-05-20T11:32:43;98571.44;;;34.51;23.87
13765;BME280;6953;48.810;9.204;2023-05-20T11:35:22;98399.94;;;34.27;23.58
13765;BME280;6953;48.810;9.204;2023-05-20T11:38:14;98542.84;;;35.85;22.38
13765;BME280;6953;48.810;9.204;2023-05-20T11:40:44;98505.56;;;37.91;20.62
13765;BME280;6953;48.810;9.204;2023-05-20T11:43:11;98542.69;;;39.39;19.40
13765;BME280;6953;48.810;9.204;2023-05-20T11:45:46;98562.25;;;38.38;19.82
13765;BME280;6953;48.810;9.204;2023-05-20T11:48:12;98511.09;;;36.56;21.11
13765;BME280;6953;48.810;9.204;2023-05-20T11:50:44;98563.03;;;35.56;22.54
13765;BME280;6953;48.810;9.204;2023-05-20T11:53:13;98357.63;;;34.24;23.61
13765;BME280;6953;48.810;9.204;2023-05-20T11:55:50;98352.19;;;34.13;23.41
13765;BME280;6953;48.810;9.204;2023-05-20T11:58:20;98354.41;;;33.82;23.83
13765;BME280;6953;48.810;9.204;2023-05-20T12:00:46;98531.25;;;34.06;24.62
13765;BME280;6953;48.810;9.204;2023-05-20T12:03:12;98306.50;;;32.34;25.94
13765;BME280;6953;48.810;9.204;2023-05-20T12:05:38;98500.34;;;32.70;26.75
13765;BME280;6953;48.810;9.204;2023-05-20T12:08:04;98364.22;;;31.56;27.04
13765;BME280;6953;48.810;9.204;2023-05-20T12:10:29;98437.66;;;31.92;27.88
13765;BME280;6953;48.810;9.204;2023-05-20T12:12:55;98321.78;;;31.68;27.29
13765;BME280;6953;48.810;9.204;2023-05-20T12:15:20;98500.38;;;33.71;25.59
13765;BME280;6953;48.810;9.204;2023-05-20T12:17:48;98509.44;;;35.66;23.69
13765;BME280;6953;48.810;9.204;2023-05-20T12:20:17;98435.97;;;38.64;20.26
13765;BME280;6953;48.810;9.204;2023-05-20T12:22:45;98394.41;;;41.80;16.91
13765;BME280;6953;48.810;9.204;2023-05-20T12:25:12;98540.53;;;44.53;15.23
13765;BME280;6953;48.810;9.204;2023-05-20T12:27:40;98538.28;;;45.59;14.46
13765;BME280;6953;48.810;9.204;2023-05-20T12:30:07;98541.78;;;44.06;14.94
13765;BME280;6953;48.810;9.204;2023-05-20T12:32:35;98506.28;;;41.47;17.10
13765;BME280;6953;48.810;9.204;2023-05-20T12:35:00;98408.84;;;39.19;18.16
13765;BME280;6953;48.810;9.204;2023-05-20T12:37:26;98354.91;;;38.06;18.98
13765;BME280;6953;48.810;9.204;2023-05-20T12:39:51;98395.84;;;37.33;20.30
13765;BME280;6953;48.810;9.204;2023-05-20T12:42:17;98316.00;;;36.93;20.66
13765;BME280;6953;48.810;9.204;2023-05-20T12:44:42;98510.78;;;38.50;19.89
13765;BME280;6953;48.810;9.204;2023-05-20T12:47:08;98435.03;;;37.81;20.18
13765;BME280;6953;48.810;9.204;2023-05-20T12:49:33;98504.72;;;38.17;20.57
13765;BME280;6953;48.810;9.204;2023-05-20T12:51:59;98469.97;;;37.69;20.61
13765;BME280;6953;48.810;9.204;2023-05-20T12:54:24;98494.66;;;38.59;19.76
13765;BME280;6953;48.810;9.204;2023-05-20T12:56:52;98494.84;;;38.16;19.95
13765;BME280;6953;48.810;9.204;2023-05-20T12:59:18;98484.50;;;37.06;20.98
13765;BME280;6953;48.810;9.204;2023-05-20T13:01:43;98490.84;;;36.24;21.71
13765;BME280;6953;48.810;9.204;2023-05-20T13:04:09;98483.47;;;36.41;21.78
13765;BME280;6953;48.810;9.204;2023-05-20T13:06:34;98294.53;;;36.85;21.13
13765;BME280;6953;48.810;9.204;2023-05-20T13:09:00;98498.06;;;39.78;18.31
13765;BME280;6953;48.810;9.204;2023-05-20T13:11:25;98488.47;;;41.15;17.79
13765;BME280;6953;48.810;9.204;2023-05-20T13:13:50;98399.72;;;41.23;17.18